Time,TemperatureF,DewpointF,PressureIn,WindDirection,WindDirectionDegrees,WindSpeedMPH,WindSpeedGustMPH,Humidity,HourlyPrecipIn,Conditions,Clouds,dailyrainin,SoftwareType,DateUTC
2013-04-26 00:07:00,41.8,36.0,30.39,North,11,1.0,1.0,80,0.00,,,0.00,weatherlink.com 1.10,2013-04-26 04:07:00,
2013-04-26 00:22:00,41.5,36.0,30.39,NNE,12,0.0,1.0,82,0.00,,,0.00,weatherlink.com 1.10,2013-04-26 04:22:00,
2013-04-26 00:38:00,41.1,37.0,30.39,NNE,12,0.0,1.0,84,0.00,,,0.00,weatherlink.com 1.10,2013-04-26 04:38:00,
2013-04-26 00:53:00,40.8,36.0,30.39,NNE,12,0.0,1.0,84,0.00,,,0.00,weatherlink.com 1.10,2013-04-26 04:53:00,
2013-04-26 01:08:00,40.4,36.0,30.39,NNE,12,0.0,1.0,84,0.00,,,0.00,weatherlink.com 1.10,2013-04-26 05:08:00,
2013-04-26 01:23:00,40.0,36.0,30.39,North,8,1.0,2.0,85,0.00,,,0.00,weatherlink.com 1.10,2013-04-26 05:23:00,
2013-04-26 01:38:00,39.6,36.0,30.39,North,8,0.0,0.0,85,0.00,,,0.00,weatherlink.com 1.10,2013-04-26 05:38:00,
2013-04-26 01:53:00,39.3,36.0,30.39,North,8,0.0,1.0,87,0.00,,,0.00,weatherlink.com 1.10,2013-04-26 05:53:00,
2013-04-26 02:08:00,39.1,35.0,30.38,North,8,0.0,0.0,86,0.00,,,0.00,weatherlink.com 1.10,2013-04-26 06:08:00,
2013-04-26 02:23:00,38.7,35.0,30.38,North,8,0.0,0.0,87,0.00,,,0.00,weatherlink.com 1.10,2013-04-26 06:23:00,
2013-04-26 02:38:00,38.5,36.0,30.38,North,8,0.0,1.0,89,0.00,,,0.00,weatherlink.com 1.10,2013-04-26 06:38:00,
2013-04-26 02:53:00,38.1,35.0,30.37,North,8,0.0,0.0,89,0.00,,,0.00,weatherlink.com 1.10,2013-04-26 06:53:00,
2013-04-26 03:08:00,38.0,35.0,30.37,North,8,0.0,1.0,90,0.00,,,0.00,weatherlink.com 1.10,2013-04-26 07:08:00,
2013-04-26 03:23:00,37.8,35.0,30.36,WSW,243,0.0,1.0,89,0.00,,,0.00,weatherlink.com 1.10,2013-04-26 07:23:00,
2013-04-26 03:38:00,37.6,35.0,30.37,WSW,243,0.0,0.0,90,0.00,,,0.00,weatherlink.com 1.10,2013-04-26 07:38:00,
2013-04-26 03:53:00,37.3,35.0,30.37,WSW,245,0.0,1.0,90,0.00,,,0.00,weatherlink.com 1.10,2013-04-26 07:53:00,
2013-04-26 04:08:00,37.0,34.0,30.37,NNW,340,0.0,1.0,90,0.00,,,0.00,weatherlink.com 1.10,2013-04-26 08:08:00,
2013-04-26 04:23:00,36.8,34.0,30.37,NNW,340,0.0,1.0,90,0.00,,,0.00,weatherlink.com 1.10,2013-04-26 08:23:00,
2013-04-26 04:38:00,36.5,34.0,30.37,NNW,340,0.0,1.0,90,0.00,,,0.00,weatherlink.com 1.10,2013-04-26 08:38:00,
2013-04-26 04:53:00,36.3,34.0,30.38,NNW,340,0.0,1.0,91,0.00,,,0.00,weatherlink.com 1.10,2013-04-26 08:53:00,
2013-04-26 05:08:00,36.1,34.0,30.38,NNW,340,0.0,1.0,91,0.00,,,0.00,weatherlink.com 1.10,2013-04-26 09:08:00,
2013-04-26 05:23:00,36.0,34.0,30.39,NNW,340,0.0,1.0,92,0.00,,,0.00,weatherlink.com 1.10,2013-04-26 09:23:00,
2013-04-26 05:38:00,35.8,34.0,30.39,NNW,340,0.0,0.0,92,0.00,,,0.00,weatherlink.com 1.10,2013-04-26 09:38:00,
2013-04-26 05:53:00,35.8,34.0,30.39,NNW,340,0.0,0.0,92,0.00,,,0.00,weatherlink.com 1.10,2013-04-26 09:53:00,
2013-04-26 06:08:00,35.9,34.0,30.39,NNW,340,0.0,0.0,92,0.00,,,0.00,weatherlink.com 1.10,2013-04-26 10:08:00,
2013-04-26 06:23:00,35.8,34.0,30.39,NNW,340,0.0,0.0,92,0.00,,,0.00,weatherlink.com 1.10,2013-04-26 10:23:00,
2013-04-26 06:38:00,35.6,34.0,30.41,NNW,340,0.0,0.0,93,0.00,,,0.00,weatherlink.com 1.10,2013-04-26 10:38:00,
2013-04-26 06:53:00,35.6,34.0,30.41,NNW,340,0.0,0.0,93,0.00,,,0.00,weatherlink.com 1.10,2013-04-26 10:53:00,
2013-04-26 07:08:00,35.7,34.0,30.42,NNW,340,0.0,0.0,93,0.00,,,0.00,weatherlink.com 1.10,2013-04-26 11:08:00,
2013-04-26 07:23:00,36.1,34.0,30.43,NNW,340,0.0,0.0,93,0.00,,,0.00,weatherlink.com 1.10,2013-04-26 11:23:00,
2013-04-26 07:38:00,36.7,35.0,30.43,NNW,340,0.0,0.0,93,0.00,,,0.00,weatherlink.com 1.10,2013-04-26 11:38:00,
2013-04-26 07:53:00,37.6,36.0,30.43,NNW,340,0.0,0.0,94,0.00,,,0.00,weatherlink.com 1.10,2013-04-26 11:53:00,
2013-04-26 08:08:00,38.7,37.0,30.44,NNW,340,0.0,0.0,94,0.00,,,0.00,weatherlink.com 1.10,2013-04-26 12:08:00,
2013-04-26 08:23:00,39.9,38.0,30.44,NNW,340,0.0,0.0,94,0.00,,,0.00,weatherlink.com 1.10,2013-04-26 12:23:00,
2013-04-26 08:38:00,41.1,39.0,30.43,NNW,340,0.0,1.0,93,0.00,,,0.00,weatherlink.com 1.10,2013-04-26 12:38:00,
2013-04-26 08:53:00,42.7,41.0,30.43,NNW,340,0.0,1.0,92,0.00,,,0.00,weatherlink.com 1.10,2013-04-26 12:53:00,
2013-04-26 09:09:00,44.6,41.0,30.43,NNW,340,0.0,1.0,87,0.00,,,0.00,weatherlink.com 1.10,2013-04-26 13:09:00,
2013-04-26 09:24:00,46.9,41.0,30.42,SSW,195,0.0,2.0,80,0.00,,,0.00,weatherlink.com 1.10,2013-04-26 13:24:00,
2013-04-26 09:39:00,49.3,42.0,30.41,SSW,195,0.0,1.0,75,0.00,,,0.00,weatherlink.com 1.10,2013-04-26 13:39:00,
2013-04-26 09:54:00,51.2,37.0,30.41,ESE,121,1.0,1.0,58,0.00,,,0.00,weatherlink.com 1.10,2013-04-26 13:54:00,
2013-04-26 10:09:00,52.4,36.0,30.41,East,84,1.0,3.0,54,0.00,,,0.00,weatherlink.com 1.10,2013-04-26 14:09:00,
2013-04-26 10:24:00,54.6,38.0,30.42,NW,326,1.0,2.0,53,0.00,,,0.00,weatherlink.com 1.10,2013-04-26 14:24:00,
2013-04-26 10:39:00,56.2,38.0,30.41,SSW,193,1.0,2.0,51,0.00,,,0.00,weatherlink.com 1.10,2013-04-26 14:39:00,
2013-04-26 10:54:00,57.6,38.0,30.42,North,352,1.0,2.0,48,0.00,,,0.00,weatherlink.com 1.10,2013-04-26 14:54:00,
2013-04-26 11:09:00,59.8,39.0,30.42,ENE,65,0.0,1.0,47,0.00,,,0.00,weatherlink.com 1.10,2013-04-26 15:09:00,
2013-04-26 11:24:00,62.0,38.0,30.42,NE,56,0.0,2.0,42,0.00,,,0.00,weatherlink.com 1.10,2013-04-26 15:24:00,
2013-04-26 11:39:00,63.4,40.0,30.41,SW,236,3.0,3.0,42,0.00,,,0.00,weatherlink.com 1.10,2013-04-26 15:39:00,
2013-04-26 11:54:00,66.0,39.0,30.41,ENE,61,0.0,5.0,37,0.00,,,0.00,weatherlink.com 1.10,2013-04-26 15:54:00,
2013-04-26 12:09:00,69.0,39.0,30.41,SSW,193,0.0,4.0,33,0.00,,,0.00,weatherlink.com 1.10,2013-04-26 16:09:00,
2013-04-26 12:24:00,70.9,37.0,30.41,SSW,197,3.0,4.0,29,0.00,,,0.00,weatherlink.com 1.10,2013-04-26 16:24:00,
2013-04-26 12:39:00,71.1,36.0,30.41,SW,215,5.0,5.0,28,0.00,,,0.00,weatherlink.com 1.10,2013-04-26 16:39:00,
2013-04-26 12:55:00,70.9,36.0,30.40,SSW,195,3.0,3.0,28,0.00,,,0.00,weatherlink.com 1.10,2013-04-26 16:55:00,
2013-04-26 13:09:00,71.1,37.0,30.40,South,174,3.0,4.0,29,0.00,,,0.00,weatherlink.com 1.10,2013-04-26 17:09:00,
2013-04-26 13:25:00,72.3,36.0,30.40,SE,144,1.0,4.0,27,0.00,,,0.00,weatherlink.com 1.10,2013-04-26 17:25:00,
2013-04-26 13:40:00,72.5,37.0,30.39,SSW,207,1.0,3.0,27,0.00,,,0.00,weatherlink.com 1.10,2013-04-26 17:40:00,
2013-04-26 13:55:00,73.7,39.0,30.39,SSW,205,1.0,3.0,28,0.00,,,0.00,weatherlink.com 1.10,2013-04-26 17:55:00,
2013-04-26 14:10:00,74.5,35.0,30.38,SSW,208,1.0,4.0,24,0.00,,,0.00,weatherlink.com 1.10,2013-04-26 18:10:00,
2013-04-26 14:25:00,75.0,37.0,30.37,SE,124,1.0,4.0,25,0.00,,,0.00,weatherlink.com 1.10,2013-04-26 18:25:00,
2013-04-26 14:40:00,75.8,36.0,30.36,East,88,1.0,3.0,24,0.00,,,0.00,weatherlink.com 1.10,2013-04-26 18:40:00,
2013-04-26 14:55:00,75.7,37.0,30.36,East,100,1.0,3.0,25,0.00,,,0.00,weatherlink.com 1.10,2013-04-26 18:55:00,
2013-04-26 15:10:00,75.4,36.0,30.36,SW,226,2.0,3.0,24,0.00,,,0.00,weatherlink.com 1.10,2013-04-26 19:10:00,
2013-04-26 15:25:00,75.8,36.0,30.35,SE,125,2.0,3.0,24,0.00,,,0.00,weatherlink.com 1.10,2013-04-26 19:25:00,
2013-04-26 15:40:00,74.4,36.0,30.34,SE,146,1.0,3.0,25,0.00,,,0.00,weatherlink.com 1.10,2013-04-26 19:40:00,
2013-04-26 15:55:00,74.8,38.0,30.33,South,183,2.0,3.0,26,0.00,,,0.00,weatherlink.com 1.10,2013-04-26 19:55:00,
2013-04-26 16:10:00,75.7,37.0,30.32,SSW,201,1.0,3.0,25,0.00,,,0.00,weatherlink.com 1.10,2013-04-26 20:10:00,
2013-04-26 16:25:00,75.5,37.0,30.32,East,92,3.0,4.0,25,0.00,,,0.00,weatherlink.com 1.10,2013-04-26 20:25:00,
2013-04-26 16:40:00,75.6,37.0,30.31,SW,224,2.0,4.0,25,0.00,,,0.00,weatherlink.com 1.10,2013-04-26 20:40:00,
2013-04-26 16:55:00,74.5,38.0,30.30,SSW,198,3.0,3.0,27,0.00,,,0.00,weatherlink.com 1.10,2013-04-26 20:55:00,
2013-04-26 17:10:00,74.5,39.0,30.31,SE,127,2.0,3.0,28,0.00,,,0.00,weatherlink.com 1.10,2013-04-26 21:10:00,
2013-04-26 17:25:00,73.1,39.0,30.30,SE,127,2.0,5.0,29,0.00,,,0.00,weatherlink.com 1.10,2013-04-26 21:25:00,
2013-04-26 17:40:00,72.3,39.0,30.31,SSW,197,2.0,5.0,30,0.00,,,0.00,weatherlink.com 1.10,2013-04-26 21:40:00,
2013-04-26 17:55:00,71.2,39.0,30.31,SE,134,1.0,5.0,31,0.00,,,0.00,weatherlink.com 1.10,2013-04-26 21:55:00,
2013-04-26 18:09:00,70.4,39.0,30.32,SW,217,1.0,4.0,32,0.00,,,0.00,weatherlink.com 1.10,2013-04-26 22:09:00,
2013-04-26 18:25:00,69.9,39.0,30.33,SSW,205,0.0,3.0,33,0.00,,,0.00,weatherlink.com 1.10,2013-04-26 22:25:00,
2013-04-26 18:40:00,69.1,39.0,30.34,SW,217,1.0,2.0,34,0.00,,,0.00,weatherlink.com 1.10,2013-04-26 22:40:00,
2013-04-26 18:55:00,68.4,38.0,30.34,SW,219,1.0,3.0,33,0.00,,,0.00,weatherlink.com 1.10,2013-04-26 22:55:00,
2013-04-26 19:10:00,67.9,39.0,30.36,SSW,208,0.0,1.0,35,0.00,,,0.00,weatherlink.com 1.10,2013-04-26 23:10:00,
2013-04-26 19:25:00,67.2,43.0,30.38,SE,141,1.0,1.0,41,0.00,,,0.00,weatherlink.com 1.10,2013-04-26 23:25:00,
2013-04-26 19:40:00,65.8,43.0,30.38,SE,141,0.0,1.0,43,0.00,,,0.00,weatherlink.com 1.10,2013-04-26 23:40:00,
2013-04-26 20:10:00,64.4,42.0,30.38,North,8,0.0,2.0,45,0.00,,,0.00,weatherlink.com 1.10,2013-04-27 00:10:00,
2013-04-26 20:25:00,63.3,43.0,30.38,SSE,158,0.0,1.0,47,0.00,,,0.00,weatherlink.com 1.10,2013-04-27 00:25:00,
2013-04-26 20:40:00,62.2,42.0,30.36,ENE,70,0.0,0.0,48,0.00,,,0.00,weatherlink.com 1.10,2013-04-27 00:40:00,
2013-04-26 20:55:00,61.4,43.0,30.33,SE,144,0.0,0.0,51,0.00,,,0.00,weatherlink.com 1.10,2013-04-27 00:55:00,
2013-04-26 21:10:00,60.7,43.0,30.30,SE,143,0.0,0.0,53,0.00,,,0.00,weatherlink.com 1.10,2013-04-27 01:10:00,
2013-04-26 21:25:00,60.3,44.0,30.30,SE,143,0.0,0.0,56,0.00,,,0.00,weatherlink.com 1.10,2013-04-27 01:25:00,
2013-04-26 21:40:00,58.4,48.0,30.32,SE,143,0.0,0.0,68,0.00,,,0.00,weatherlink.com 1.10,2013-04-27 01:40:00,
2013-04-26 21:55:00,57.1,48.0,30.33,SE,143,0.0,0.0,72,0.00,,,0.00,weatherlink.com 1.10,2013-04-27 01:55:00,
2013-04-26 22:10:00,56.3,49.0,30.35,North,355,0.0,0.0,76,0.00,,,0.00,weatherlink.com 1.10,2013-04-27 02:10:00,
2013-04-26 22:25:00,55.1,49.0,30.36,North,354,0.0,0.0,81,0.00,,,0.00,weatherlink.com 1.10,2013-04-27 02:25:00,
2013-04-26 22:40:00,54.5,50.0,30.38,North,354,0.0,0.0,85,0.01,,,0.01,weatherlink.com 1.10,2013-04-27 02:40:00,
2013-04-26 22:55:00,53.4,50.0,30.37,North,354,0.0,0.0,87,0.03,,,0.03,weatherlink.com 1.10,2013-04-27 02:55:00,
2013-04-26 23:10:00,52.8,50.0,30.38,North,354,0.0,0.0,89,0.06,,,0.06,weatherlink.com 1.10,2013-04-27 03:10:00,
2013-04-26 23:25:00,52.8,50.0,30.38,North,354,0.0,0.0,91,0.10,,,0.10,weatherlink.com 1.10,2013-04-27 03:25:00,
2013-04-26 23:40:00,52.4,50.0,30.38,North,353,0.0,0.0,91,0.11,,,0.12,weatherlink.com 1.10,2013-04-27 03:40:00,
2013-04-26 23:55:00,52.0,50.0,30.39,SW,226,0.0,0.0,92,0.11,,,0.14,weatherlink.com 1.10,2013-04-27 03:55:00,